Time;durP1;ratioP1;P1;durP2;ratioP2;P2;SDS_P1;SDS_P2;PMS_P1;PMS_P2;Temp;Humidity;BMP_temperature;BMP_pressure;BME280_temperature;BME280_humidity;BME280_pressure;Samples;Min_cycle;Max_cycle;Signal;HPM_P1;HPM_P2
2023/08/10 00:00:59;;;;;;;;;;;16.10;96.70;;;;;;5092055;28;20410;-69
2023/08/10 00:03:24;;;;;;;;;;;16.00;96.80;;;;;;5089095;28;19942;-68
2023/08/10 00:05:50;;;;;;;;;;;16.00;97.10;;;;;;5082431;28;20299;-68
2023/08/10 00:08:15;;;;;;;;;;;16.00;96.90;;;;;;5089409;28;19957;-68
2023/08/10 00:10:41;;;;;;;;;;;16.00;96.80;;;;;;5089096;28;20709;-68
2023/08/10 00:13:08;;;;;;;;;;;16.00;96.60;;;;;;5070912;28;19912;-69
2023/08/10 00:15:34;;;;;;;;;;;16.00;96.60;;;;;;5088940;28;19912;-69
2023/08/10 00:17:59;;;;;;;;;;;16.00;96.50;;;;;;5088991;28;20200;-69
2023/08/10 00:20:25;;;;;;;;;;;16.00;96.50;;;;;;5089459;28;19912;-69
2023/08/10 00:22:52;;;;;;;;;;;16.00;96.60;;;;;;5108453;28;20394;-69
2023/08/10 00:25:17;;;;;;;;;;;15.90;96.60;;;;;;5093975;28;19973;-69
2023/08/10 00:27:43;;;;;;;;;;;15.90;96.70;;;;;;5088538;28;19916;-69
2023/08/10 00:30:09;;;;;;;;;;;15.90;97.30;;;;;;5088631;28;19927;-69
2023/08/10 00:32:35;;;;;;;;;;;15.90;97.20;;;;;;5088653;28;19981;-69
2023/08/10 00:35:00;;;;;;;;;;;15.90;97.20;;;;;;5090639;28;19927;-68
2023/08/10 00:37:26;;;;;;;;;;;15.90;97.10;;;;;;5090273;28;19916;-68
2023/08/10 00:39:51;;;;;;;;;;;15.90;97.40;;;;;;5069999;28;19946;-68
2023/08/10 00:42:17;;;;;;;;;;;15.80;97.50;;;;;;5088639;28;19951;-68
2023/08/10 00:44:43;;;;;;;;;;;15.90;97.30;;;;;;5088751;28;19918;-68
2023/08/10 00:47:09;;;;;;;;;;;15.80;97.20;;;;;;5088132;28;19912;-68
2023/08/10 00:49:35;;;;;;;;;;;15.80;97.00;;;;;;5081428;28;20020;-69
2023/08/10 00:52:01;;;;;;;;;;;15.80;96.80;;;;;;5087377;28;19920;-68
2023/08/10 00:54:26;;;;;;;;;;;15.80;96.70;;;;;;5096128;28;19916;-68
2023/08/10 00:56:52;;;;;;;;;;;15.80;96.80;;;;;;5069101;28;19969;-69
2023/08/10 00:59:17;;;;;;;;;;;15.80;96.70;;;;;;5087556;28;19912;-68
2023/08/10 01:01:44;;;;;;;;;;;15.80;96.70;;;;;;5086763;28;19991;-69
2023/08/10 01:04:09;;;;;;;;;;;15.80;96.50;;;;;;5087544;28;19919;-69
2023/08/10 01:06:40;;;;;;;;;;;15.70;96.80;;;;;;5087757;28;19915;-69
2023/08/10 01:09:07;;;;;;;;;;;15.70;96.70;;;;;;5088158;28;20349;-68
2023/08/10 01:11:32;;;;;;;;;;;15.70;96.80;;;;;;5089390;28;19954;-69
2023/08/10 01:14:12;;;;;;;;;;;15.70;97.10;;;;;;5088130;28;19951;-69
2023/08/10 01:16:41;;;;;;;;;;;15.70;96.90;;;;;;5067153;28;19920;-69
2023/08/10 01:19:25;;;;;;;;;;;15.70;97.00;;;;;;5067235;28;19908;-69
2023/08/10 01:21:54;;;;;;;;;;;15.70;97.10;;;;;;5048500;28;20007;-69
2023/08/10 01:24:25;;;;;;;;;;;15.70;97.30;;;;;;5091405;28;19920;-68
2023/08/10 01:26:53;;;;;;;;;;;15.60;97.40;;;;;;5089005;28;19920;-69
2023/08/10 01:29:19;;;;;;;;;;;15.70;97.30;;;;;;5070338;28;20024;-69
2023/08/10 01:31:45;;;;;;;;;;;15.60;97.30;;;;;;5086595;28;19975;-68
2023/08/10 01:34:10;;;;;;;;;;;15.60;97.30;;;;;;5075157;28;19920;-68
2023/08/10 01:36:36;;;;;;;;;;;15.60;97.30;;;;;;5087676;28;19912;-69
2023/08/10 01:39:02;;;;;;;;;;;15.60;97.50;;;;;;5088771;28;19912;-69
2023/08/10 01:41:27;;;;;;;;;;;15.60;97.50;;;;;;5088064;28;19951;-68
2023/08/10 01:43:53;;;;;;;;;;;15.60;97.50;;;;;;5088051;28;19975;-68
2023/08/10 01:46:19;;;;;;;;;;;15.60;97.70;;;;;;5087226;28;20356;-68
2023/08/10 01:48:46;;;;;;;;;;;15.60;97.80;;;;;;5087475;28;19912;-69
2023/08/10 01:51:12;;;;;;;;;;;15.60;97.80;;;;;;5087766;28;19912;-69
2023/08/10 01:53:40;;;;;;;;;;;15.60;98.10;;;;;;5100025;28;20414;-69
2023/08/10 01:56:05;;;;;;;;;;;15.60;98.20;;;;;;5091620;28;20319;-68
2023/08/10 01:58:31;;;;;;;;;;;15.50;98.20;;;;;;5091901;28;19912;-68
2023/08/10 02:00:56;;;;;;;;;;;15.50;97.90;;;;;;5083206;28;20008;-68
2023/08/10 02:03:22;;;;;;;;;;;15.50;97.80;;;;;;5073124;28;19912;-69
2023/08/10 02:05:48;;;;;;;;;;;15.50;97.80;;;;;;5091105;28;19912;-69
2023/08/10 02:08:13;;;;;;;;;;;15.50;97.80;;;;;;5091675;28;19912;-69
2023/08/10 02:10:39;;;;;;;;;;;15.50;97.90;;;;;;5080536;28;19912;-69
2023/08/10 02:13:04;;;;;;;;;;;15.50;97.90;;;;;;5111741;28;20257;-69
2023/08/10 02:15:30;;;;;;;;;;;15.50;97.80;;;;;;5089087;28;19912;-69
2023/08/10 02:17:55;;;;;;;;;;;15.50;97.90;;;;;;5077458;28;20235;-69
2023/08/10 02:20:21;;;;;;;;;;;15.50;97.80;;;;;;5090270;28;19919;-69
2023/08/10 02:22:50;;;;;;;;;;;15.50;97.80;;;;;;5094119;28;19968;-69
2023/08/10 02:25:17;;;;;;;;;;;15.50;97.80;;;;;;5067754;28;19951;-68
2023/08/10 02:27:42;;;;;;;;;;;15.50;97.80;;;;;;5110764;28;20671;-69
2023/08/10 02:30:08;;;;;;;;;;;15.40;97.70;;;;;;5111196;28;19951;-69
2023/08/10 02:32:34;;;;;;;;;;;15.40;97.70;;;;;;5111246;28;19916;-69
2023/08/10 02:35:00;;;;;;;;;;;15.40;97.70;;;;;;5100017;28;19912;-69
2023/08/10 02:37:25;;;;;;;;;;;15.40;97.70;;;;;;5100085;28;19965;-69
2023/08/10 02:39:51;;;;;;;;;;;15.40;97.90;;;;;;5090685;28;19908;-69
2023/08/10 02:42:16;;;;;;;;;;;15.40;98.00;;;;;;5090437;28;19918;-69
2023/08/10 02:44:43;;;;;;;;;;;15.40;97.90;;;;;;5090481;28;19922;-69
2023/08/10 02:47:08;;;;;;;;;;;15.40;98.00;;;;;;5090123;28;19916;-69
2023/08/10 02:49:34;;;;;;;;;;;15.40;98.10;;;;;;5093474;28;19969;-69
2023/08/10 02:51:59;;;;;;;;;;;15.40;98.20;;;;;;5110914;28;19916;-69
2023/08/10 02:54:25;;;;;;;;;;;15.40;98.10;;;;;;5084760;28;20417;-69
2023/08/10 02:56:50;;;;;;;;;;;15.40;98.10;;;;;;5089697;28;19912;-69
2023/08/10 02:59:16;;;;;;;;;;;15.40;98.20;;;;;;5090280;28;20399;-69
2023/08/10 03:01:41;;;;;;;;;;;15.40;98.10;;;;;;5081376;28;19918;-69
2023/08/10 03:04:07;;;;;;;;;;;15.40;98.10;;;;;;5089285;28;19912;-69
2023/08/10 03:06:32;;;;;;;;;;;15.40;98.20;;;;;;5090987;28;20365;-69
2023/08/10 03:08:58;;;;;;;;;;;15.30;98.50;;;;;;5089802;28;19912;-69
2023/08/10 03:11:23;;;;;;;;;;;15.40;98.90;;;;;;5071715;28;19908;-69
2023/08/10 03:13:49;;;;;;;;;;;15.30;98.60;;;;;;5089160;28;19993;-70
2023/08/10 03:16:14;;;;;;;;;;;15.40;98.80;;;;;;5089066;28;19912;-69
2023/08/10 03:18:40;;;;;;;;;;;15.30;98.70;;;;;;5089531;28;19954;-69
2023/08/10 03:21:05;;;;;;;;;;;15.30;98.70;;;;;;5089663;28;19908;-69
2023/08/10 03:23:31;;;;;;;;;;;15.30;98.70;;;;;;5101911;28;19912;-68
2023/08/10 03:25:56;;;;;;;;;;;15.30;98.70;;;;;;5089301;28;19916;-68
2023/08/10 03:28:22;;;;;;;;;;;15.30;98.60;;;;;;5089568;28;19995;-68
2023/08/10 03:30:48;;;;;;;;;;;15.30;98.70;;;;;;5090131;28;19916;-69
2023/08/10 03:33:14;;;;;;;;;;;15.30;98.60;;;;;;5089547;28;20624;-69
2023/08/10 03:35:39;;;;;;;;;;;15.30;98.80;;;;;;5089548;28;19995;-68
2023/08/10 03:38:05;;;;;;;;;;;15.30;99.20;;;;;;5089643;28;19912;-69
2023/08/10 03:40:30;;;;;;;;;;;15.30;99.30;;;;;;5072854;28;19919;-69
2023/08/10 03:42:56;;;;;;;;;;;15.30;99.40;;;;;;5089238;28;19920;-68
2023/08/10 03:45:21;;;;;;;;;;;15.30;99.40;;;;;;5089080;28;20590;-68
2023/08/10 03:47:47;;;;;;;;;;;15.30;99.60;;;;;;5089276;28;19945;-68
2023/08/10 03:50:12;;;;;;;;;;;15.30;99.70;;;;;;5089700;28;20391;-68
2023/08/10 03:52:38;;;;;;;;;;;15.30;99.70;;;;;;5090872;28;19918;-68
2023/08/10 03:55:04;;;;;;;;;;;15.30;99.30;;;;;;5097012;28;20695;-68
2023/08/10 03:57:29;;;;;;;;;;;15.30;99.30;;;;;;5103690;28;20280;-68
2023/08/10 03:59:55;;;;;;;;;;;15.30;99.30;;;;;;5089049;28;19912;-69
2023/08/10 04:02:22;;;;;;;;;;;15.30;99.20;;;;;;5088574;28;19920;-68
2023/08/10 04:04:48;;;;;;;;;;;15.30;99.30;;;;;;5089129;28;19912;-68
2023/08/10 04:07:13;;;;;;;;;;;15.30;99.40;;;;;;5087100;28;19923;-68
2023/08/10 04:09:44;;;;;;;;;;;15.30;99.40;;;;;;5089148;28;19915;-69
2023/08/10 04:12:10;;;;;;;;;;;15.20;99.50;;;;;;5077787;28;19969;-69
2023/08/10 04:14:35;;;;;;;;;;;15.20;99.40;;;;;;5104477;28;19915;-68
2023/08/10 04:17:01;;;;;;;;;;;15.20;99.40;;;;;;5088459;28;19913;-69
2023/08/10 04:19:27;;;;;;;;;;;15.20;99.30;;;;;;5088977;28;19984;-68
2023/08/10 04:21:53;;;;;;;;;;;15.20;99.00;;;;;;5088908;28;19912;-68
2023/08/10 04:24:18;;;;;;;;;;;15.10;99.20;;;;;;5104560;28;19919;-68
2023/08/10 04:26:45;;;;;;;;;;;15.10;99.10;;;;;;5109269;28;19912;-68
2023/08/10 04:29:10;;;;;;;;;;;15.10;99.00;;;;;;5108453;28;19998;-69
2023/08/10 04:31:36;;;;;;;;;;;15.10;98.90;;;;;;5109048;28;20019;-68
2023/08/10 04:34:01;;;;;;;;;;;15.10;98.90;;;;;;5102632;28;19994;-68
2023/08/10 04:36:27;;;;;;;;;;;15.00;98.80;;;;;;5090691;28;19912;-69
2023/08/10 04:38:52;;;;;;;;;;;15.00;98.90;;;;;;5088770;28;19966;-69
2023/08/10 04:41:18;;;;;;;;;;;15.00;98.80;;;;;;5088346;28;19938;-68
2023/08/10 04:43:43;;;;;;;;;;;15.00;99.10;;;;;;5088507;28;19922;-68
2023/08/10 04:46:09;;;;;;;;;;;15.00;99.10;;;;;;5095543;28;20009;-69
2023/08/10 04:48:34;;;;;;;;;;;15.00;99.20;;;;;;5088158;28;19919;-68
2023/08/10 04:51:00;;;;;;;;;;;14.90;99.00;;;;;;5088372;28;20346;-69
2023/08/10 04:53:26;;;;;;;;;;;14.90;99.10;;;;;;5096481;28;19915;-68
2023/08/10 04:55:52;;;;;;;;;;;14.90;99.10;;;;;;5088533;28;19912;-68
2023/08/10 04:58:17;;;;;;;;;;;14.90;99.00;;;;;;5088218;28;19965;-68
2023/08/10 05:00:43;;;;;;;;;;;14.90;99.10;;;;;;5085449;28;19973;-68
2023/08/10 05:03:09;;;;;;;;;;;14.90;99.00;;;;;;5069300;28;19919;-68
2023/08/10 05:05:34;;;;;;;;;;;14.90;99.10;;;;;;5069627;28;19973;-68
2023/08/10 05:08:00;;;;;;;;;;;14.90;99.20;;;;;;5088024;28;19969;-68
2023/08/10 05:10:25;;;;;;;;;;;14.90;99.20;;;;;;5088085;28;19923;-69
2023/08/10 05:12:51;;;;;;;;;;;14.80;99.30;;;;;;5088055;28;19912;-69
2023/08/10 05:15:16;;;;;;;;;;;14.80;99.30;;;;;;5088026;28;19928;-68
2023/08/10 05:17:42;;;;;;;;;;;14.80;99.30;;;;;;5088876;28;20304;-68
2023/08/10 05:20:11;;;;;;;;;;;14.90;99.30;;;;;;5088139;28;19912;-69
2023/08/10 05:22:40;;;;;;;;;;;14.80;99.30;;;;;;5088665;28;19916;-69
2023/08/10 05:25:08;;;;;;;;;;;14.80;99.20;;;;;;5086472;28;19999;-68
2023/08/10 05:27:34;;;;;;;;;;;14.80;99.30;;;;;;5069255;28;20380;-68
2023/08/10 05:29:59;;;;;;;;;;;14.80;99.40;;;;;;5087435;28;19916;-68
2023/08/10 05:32:25;;;;;;;;;;;14.80;99.40;;;;;;5086957;28;19918;-68
2023/08/10 05:34:50;;;;;;;;;;;14.80;99.60;;;;;;5088919;28;19977;-69
2023/08/10 05:37:15;;;;;;;;;;;14.80;99.60;;;;;;5087204;28;19912;-68
2023/08/10 05:39:41;;;;;;;;;;;14.80;99.70;;;;;;5087423;28;19923;-69
2023/08/10 05:42:07;;;;;;;;;;;14.80;99.70;;;;;;5087178;28;19916;-69
2023/08/10 05:44:32;;;;;;;;;;;14.80;99.70;;;;;;5086163;28;19927;-68
2023/08/10 05:46:58;;;;;;;;;;;14.80;99.50;;;;;;5086399;28;19920;-69
2023/08/10 05:49:23;;;;;;;;;;;14.80;99.70;;;;;;5087437;28;19958;-68
2023/08/10 05:51:49;;;;;;;;;;;14.80;99.80;;;;;;5088478;28;20484;-69
2023/08/10 05:54:14;;;;;;;;;;;14.80;99.60;;;;;;5096602;28;20434;-68
2023/08/10 05:56:40;;;;;;;;;;;14.90;99.90;;;;;;5087346;28;19919;-69
2023/08/10 05:59:05;;;;;;;;;;;14.80;99.90;;;;;;5087208;28;20003;-69
2023/08/10 06:01:31;;;;;;;;;;;14.90;99.90;;;;;;5068670;28;19908;-68
2023/08/10 06:03:56;;;;;;;;;;;14.90;99.70;;;;;;5086671;28;20259;-68
2023/08/10 06:06:22;;;;;;;;;;;14.90;99.60;;;;;;5087823;28;19916;-69
2023/08/10 06:08:48;;;;;;;;;;;15.00;99.60;;;;;;5087144;28;19916;-69
2023/08/10 06:11:14;;;;;;;;;;;15.00;99.50;;;;;;5086679;28;19962;-69
2023/08/10 06:13:41;;;;;;;;;;;15.00;99.20;;;;;;5087026;28;19947;-69
2023/08/10 06:16:07;;;;;;;;;;;15.00;99.10;;;;;;5086266;28;20662;-68
2023/08/10 06:18:34;;;;;;;;;;;15.00;99.00;;;;;;5086621;28;19916;-68
2023/08/10 06:21:01;;;;;;;;;;;15.00;99.20;;;;;;5086753;28;19912;-68
2023/08/10 06:23:28;;;;;;;;;;;15.00;98.80;;;;;;5093765;28;19916;-68
2023/08/10 06:25:54;;;;;;;;;;;15.00;98.80;;;;;;5087050;28;19960;-69
2023/08/10 06:28:20;;;;;;;;;;;15.00;98.60;;;;;;5068611;28;19961;-68
2023/08/10 06:30:46;;;;;;;;;;;15.10;98.60;;;;;;5087213;28;19912;-69
2023/08/10 06:33:11;;;;;;;;;;;15.10;98.70;;;;;;5068572;28;19989;-68
2023/08/10 06:35:40;;;;;;;;;;;15.10;98.60;;;;;;5088909;28;20289;-68
2023/08/10 06:38:05;;;;;;;;;;;15.10;98.60;;;;;;5087699;28;19912;-68
2023/08/10 06:40:31;;;;;;;;;;;15.20;98.60;;;;;;5091313;28;20273;-68
2023/08/10 06:42:57;;;;;;;;;;;15.20;98.90;;;;;;5090046;28;20005;-68
2023/08/10 06:45:23;;;;;;;;;;;15.20;98.30;;;;;;5070601;28;19912;-68
2023/08/10 06:47:49;;;;;;;;;;;15.20;98.40;;;;;;5089638;28;19937;-68
2023/08/10 06:50:15;;;;;;;;;;;15.30;98.50;;;;;;5090442;28;20603;-68
2023/08/10 06:52:41;;;;;;;;;;;15.30;98.40;;;;;;5090843;28;19924;-68
2023/08/10 06:55:07;;;;;;;;;;;15.40;98.50;;;;;;5089910;28;20347;-68
2023/08/10 06:57:34;;;;;;;;;;;15.40;98.30;;;;;;5090085;28;19920;-68
2023/08/10 07:00:00;;;;;;;;;;;15.40;98.20;;;;;;5089265;28;19919;-69
2023/08/10 07:02:26;;;;;;;;;;;15.40;98.20;;;;;;5088393;28;19912;-69
2023/08/10 07:04:52;;;;;;;;;;;15.40;97.90;;;;;;5089325;28;20347;-68
2023/08/10 07:07:17;;;;;;;;;;;15.50;97.70;;;;;;5089219;28;19916;-68
2023/08/10 07:09:43;;;;;;;;;;;15.50;97.80;;;;;;5071752;28;19912;-69
2023/08/10 07:12:09;;;;;;;;;;;15.50;97.70;;;;;;5089521;28;19916;-68
2023/08/10 07:14:35;;;;;;;;;;;15.50;97.50;;;;;;5089481;28;19923;-69
2023/08/10 07:17:02;;;;;;;;;;;15.60;97.70;;;;;;5089190;28;19912;-69
2023/08/10 07:19:27;;;;;;;;;;;15.50;97.50;;;;;;5089709;28;19987;-68
2023/08/10 07:21:55;;;;;;;;;;;15.60;97.50;;;;;;5089595;28;20420;-68
2023/08/10 07:24:22;;;;;;;;;;;15.60;97.30;;;;;;5092023;28;19920;-69
2023/08/10 07:26:48;;;;;;;;;;;15.60;97.40;;;;;;5088861;28;19916;-68
2023/08/10 07:29:13;;;;;;;;;;;15.60;97.30;;;;;;5089249;28;19919;-68
2023/08/10 07:31:39;;;;;;;;;;;15.60;97.20;;;;;;5085390;28;19908;-68
2023/08/10 07:34:04;;;;;;;;;;;15.70;97.30;;;;;;5088803;28;20361;-68
2023/08/10 07:36:30;;;;;;;;;;;15.70;96.90;;;;;;5089752;28;19970;-69
2023/08/10 07:38:55;;;;;;;;;;;15.70;97.00;;;;;;5089250;28;20003;-68
2023/08/10 07:41:22;;;;;;;;;;;15.70;97.00;;;;;;5088660;28;19919;-69
2023/08/10 07:43:47;;;;;;;;;;;15.70;96.90;;;;;;5089207;28;19912;-69
2023/08/10 07:46:13;;;;;;;;;;;15.70;96.70;;;;;;5088573;28;19922;-69
2023/08/10 07:48:39;;;;;;;;;;;15.80;96.60;;;;;;5088727;28;19962;-69
2023/08/10 07:51:04;;;;;;;;;;;15.80;96.60;;;;;;5089073;28;20293;-68
2023/08/10 07:53:30;;;;;;;;;;;15.80;96.60;;;;;;5090679;28;19966;-68
2023/08/10 07:55:56;;;;;;;;;;;15.80;96.50;;;;;;5088587;28;19908;-69
2023/08/10 07:58:21;;;;;;;;;;;15.90;96.20;;;;;;5088524;28;19912;-68
2023/08/10 08:00:47;;;;;;;;;;;15.90;96.30;;;;;;5088558;28;19912;-68
2023/08/10 08:03:13;;;;;;;;;;;15.90;96.20;;;;;;5068910;28;19912;-69
2023/08/10 08:05:40;;;;;;;;;;;15.90;96.00;;;;;;5088252;28;19999;-69
2023/08/10 08:08:06;;;;;;;;;;;15.90;95.90;;;;;;5088457;28;19916;-69
2023/08/10 08:10:32;;;;;;;;;;;15.90;95.70;;;;;;5070146;28;19920;-69
2023/08/10 08:12:57;;;;;;;;;;;16.00;95.60;;;;;;5088217;28;19912;-69
2023/08/10 08:15:23;;;;;;;;;;;16.00;95.40;;;;;;5068109;28;19912;-69
2023/08/10 08:18:08;;;;;;;;;;;16.00;95.60;;;;;;5062478;28;19919;-69
2023/08/10 08:20:33;;;;;;;;;;;16.00;95.20;;;;;;5086495;28;19959;-69
2023/08/10 08:22:59;;;;;;;;;;;16.00;95.30;;;;;;5085182;28;20365;-69
2023/08/10 08:25:24;;;;;;;;;;;16.00;95.00;;;;;;5086414;28;19920;-69
2023/08/10 08:27:49;;;;;;;;;;;16.10;94.90;;;;;;5071981;28;19931;-69
2023/08/10 08:30:15;;;;;;;;;;;16.10;94.60;;;;;;5071480;28;20074;-68
2023/08/10 08:32:40;;;;;;;;;;;16.10;94.80;;;;;;5069735;28;20273;-68
2023/08/10 08:35:06;;;;;;;;;;;16.10;94.30;;;;;;5087474;28;19919;-68
2023/08/10 08:37:32;;;;;;;;;;;16.10;94.50;;;;;;5086673;28;20436;-68
2023/08/10 08:39:57;;;;;;;;;;;16.20;94.40;;;;;;5088111;28;20456;-68
2023/08/10 08:42:24;;;;;;;;;;;16.20;94.40;;;;;;5087729;28;19908;-68
2023/08/10 08:44:50;;;;;;;;;;;16.20;94.20;;;;;;5088165;28;19908;-68
2023/08/10 08:47:15;;;;;;;;;;;16.20;93.90;;;;;;5087325;28;19954;-68
2023/08/10 08:49:41;;;;;;;;;;;16.20;93.90;;;;;;5088054;28;19951;-69
2023/08/10 08:52:06;;;;;;;;;;;16.30;93.60;;;;;;5087486;28;20049;-69
2023/08/10 08:54:32;;;;;;;;;;;16.30;93.70;;;;;;5089895;28;19915;-69
2023/08/10 08:56:58;;;;;;;;;;;16.40;93.40;;;;;;5087260;28;20376;-69
2023/08/10 08:59:24;;;;;;;;;;;16.40;93.50;;;;;;5069701;28;19912;-69
2023/08/10 09:01:49;;;;;;;;;;;16.40;93.50;;;;;;5086845;28;19908;-68
2023/08/10 09:04:15;;;;;;;;;;;16.40;93.50;;;;;;5087427;28;19908;-68
2023/08/10 09:06:40;;;;;;;;;;;16.40;93.60;;;;;;5087079;28;19912;-69
2023/08/10 09:09:06;;;;;;;;;;;16.40;93.60;;;;;;5087609;28;19908;-69
2023/08/10 09:11:31;;;;;;;;;;;16.50;93.60;;;;;;5069104;28;20388;-69
2023/08/10 09:14:15;;;;;;;;;;;16.50;93.60;;;;;;5086759;28;19968;-69
2023/08/10 09:16:44;;;;;;;;;;;16.50;93.50;;;;;;5083624;28;20010;-69
2023/08/10 09:19:13;;;;;;;;;;;16.60;93.40;;;;;;5087394;28;20006;-69
2023/08/10 09:21:39;;;;;;;;;;;16.60;93.00;;;;;;5086908;28;19912;-69
2023/08/10 09:24:08;;;;;;;;;;;16.60;93.00;;;;;;5096718;28;19923;-69
2023/08/10 09:26:33;;;;;;;;;;;16.70;92.90;;;;;;5087377;28;20280;-69
2023/08/10 09:28:59;;;;;;;;;;;16.70;92.90;;;;;;5106045;28;19976;-69
2023/08/10 09:31:26;;;;;;;;;;;16.70;92.80;;;;;;5107521;28;19919;-69
2023/08/10 09:33:52;;;;;;;;;;;16.80;92.70;;;;;;5103048;28;19982;-68
2023/08/10 09:36:21;;;;;;;;;;;16.80;92.70;;;;;;5087230;28;20317;-68
2023/08/10 09:38:50;;;;;;;;;;;16.90;92.60;;;;;;5087657;28;19908;-68
2023/08/10 09:41:15;;;;;;;;;;;16.90;92.70;;;;;;5087382;28;19959;-69
2023/08/10 09:43:44;;;;;;;;;;;17.00;92.50;;;;;;5091459;28;19951;-69
2023/08/10 09:46:11;;;;;;;;;;;17.00;92.50;;;;;;5107511;28;19912;-69
2023/08/10 09:48:38;;;;;;;;;;;17.10;92.20;;;;;;5107799;28;19970;-69
2023/08/10 09:51:04;;;;;;;;;;;17.10;92.40;;;;;;5107759;28;19911;-69
2023/08/10 09:53:30;;;;;;;;;;;17.20;92.30;;;;;;5101919;28;20000;-69
2023/08/10 09:55:56;;;;;;;;;;;17.30;92.20;;;;;;5066993;28;20023;-69
2023/08/10 09:58:21;;;;;;;;;;;17.30;92.30;;;;;;5066009;28;20713;-69
2023/08/10 10:00:49;;;;;;;;;;;17.40;92.00;;;;;;5072142;28;19947;-69
2023/08/10 10:03:18;;;;;;;;;;;17.50;91.50;;;;;;5086800;28;20548;-69
2023/08/10 10:05:43;;;;;;;;;;;17.60;91.50;;;;;;5068518;28;19912;-69
2023/08/10 10:08:11;;;;;;;;;;;17.60;91.20;;;;;;5087357;28;19918;-69
2023/08/10 10:10:37;;;;;;;;;;;17.70;91.30;;;;;;5087929;28;19913;-69
2023/08/10 10:13:04;;;;;;;;;;;17.70;91.00;;;;;;5088826;28;19918;-69
2023/08/10 10:15:30;;;;;;;;;;;17.70;91.00;;;;;;5089922;28;20659;-69
2023/08/10 10:17:56;;;;;;;;;;;17.80;91.00;;;;;;5092054;28;19977;-69
2023/08/10 10:20:22;;;;;;;;;;;17.80;91.00;;;;;;5091234;28;20376;-69
2023/08/10 10:22:48;;;;;;;;;;;17.80;90.80;;;;;;5075524;28;20396;-69
2023/08/10 10:25:15;;;;;;;;;;;17.90;90.80;;;;;;5096950;28;19920;-69
2023/08/10 10:27:40;;;;;;;;;;;18.00;90.40;;;;;;5091207;28;20005;-69
2023/08/10 10:30:17;;;;;;;;;;;18.10;90.70;;;;;;5091425;28;20658;-69
2023/08/10 10:32:47;;;;;;;;;;;18.20;90.10;;;;;;5094029;28;20291;-69
2023/08/10 10:35:25;;;;;;;;;;;18.20;90.30;;;;;;5095176;28;20401;-69
2023/08/10 10:37:54;;;;;;;;;;;18.30;90.40;;;;;;5106257;28;19912;-69
2023/08/10 10:40:22;;;;;;;;;;;18.40;90.70;;;;;;5111566;28;19951;-69
2023/08/10 10:43:03;;;;;;;;;;;18.50;90.70;;;;;;5111165;28;19916;-69
2023/08/10 10:45:29;;;;;;;;;;;18.60;90.40;;;;;;5111093;28;19950;-69
2023/08/10 10:47:55;;;;;;;;;;;18.70;90.50;;;;;;5111317;28;19946;-69
2023/08/10 10:50:23;;;;;;;;;;;18.70;90.50;;;;;;5094460;28;19977;-69
2023/08/10 10:52:56;;;;;;;;;;;18.80;90.30;;;;;;5093655;28;20429;-69
2023/08/10 10:55:26;;;;;;;;;;;18.80;90.30;;;;;;5094983;28;19946;-69
2023/08/10 10:57:52;;;;;;;;;;;18.90;90.00;;;;;;5090746;28;19966;-69
2023/08/10 11:00:19;;;;;;;;;;;19.00;90.20;;;;;;5100698;28;20429;-69
2023/08/10 11:02:45;;;;;;;;;;;19.10;90.30;;;;;;5090063;28;19908;-69
2023/08/10 11:05:12;;;;;;;;;;;19.20;90.10;;;;;;5090305;28;19965;-69
2023/08/10 11:07:41;;;;;;;;;;;19.30;89.60;;;;;;5071946;28;20019;-69
2023/08/10 11:10:07;;;;;;;;;;;19.40;90.20;;;;;;5072046;28;19919;-70
2023/08/10 11:12:33;;;;;;;;;;;19.50;90.70;;;;;;5090117;28;19916;-70
2023/08/10 11:14:58;;;;;;;;;;;19.60;90.20;;;;;;5109538;28;20509;-69
2023/08/10 11:17:27;;;;;;;;;;;19.60;89.60;;;;;;5101978;28;19970;-70
2023/08/10 11:19:52;;;;;;;;;;;19.70;89.70;;;;;;5089675;28;20280;-69
2023/08/10 11:22:18;;;;;;;;;;;19.80;90.30;;;;;;5090068;28;19916;-69
2023/08/10 11:24:45;;;;;;;;;;;19.90;90.10;;;;;;5098325;28;20537;-69
2023/08/10 11:27:10;;;;;;;;;;;20.00;89.80;;;;;;5089758;28;19931;-69
2023/08/10 11:29:36;;;;;;;;;;;20.10;90.30;;;;;;5098375;28;19920;-70
2023/08/10 11:32:01;;;;;;;;;;;20.10;90.50;;;;;;5110691;28;19965;-69
2023/08/10 11:34:27;;;;;;;;;;;20.20;90.00;;;;;;5100869;28;20544;-69
2023/08/10 11:36:53;;;;;;;;;;;20.30;90.20;;;;;;5090202;28;19912;-69
2023/08/10 11:39:20;;;;;;;;;;;20.30;90.20;;;;;;5091186;28;20296;-71
2023/08/10 11:41:45;;;;;;;;;;;20.30;90.10;;;;;;5091637;28;19908;-71
2023/08/10 11:44:21;;;;;;;;;;;20.40;90.50;;;;;;5089998;28;19918;-72
2023/08/10 11:46:49;;;;;;;;;;;20.40;90.20;;;;;;5090473;28;19927;-71
2023/08/10 11:49:15;;;;;;;;;;;20.50;88.10;;;;;;5089624;28;19939;-70
2023/08/10 11:51:41;;;;;;;;;;;20.50;89.40;;;;;;5089752;28;20273;-70
2023/08/10 11:54:10;;;;;;;;;;;20.60;90.10;;;;;;5098068;28;19919;-70
2023/08/10 11:56:44;;;;;;;;;;;20.50;89.90;;;;;;5070586;28;19957;-71
2023/08/10 11:59:14;;;;;;;;;;;20.70;90.20;;;;;;5071222;28;19908;-71
2023/08/10 12:01:46;;;;;;;;;;;20.80;90.00;;;;;;5089262;28;20487;-71
2023/08/10 12:04:14;;;;;;;;;;;20.80;89.90;;;;;;5070735;28;19912;-72
2023/08/10 12:06:40;;;;;;;;;;;20.70;89.60;;;;;;5088741;28;19962;-72
2023/08/10 12:09:10;;;;;;;;;;;20.80;90.00;;;;;;5089438;28;20057;-70
2023/08/10 12:11:36;;;;;;;;;;;20.90;89.80;;;;;;5088902;28;19961;-70
2023/08/10 12:14:01;;;;;;;;;;;21.00;90.20;;;;;;5088984;28;19915;-70
2023/08/10 12:16:27;;;;;;;;;;;20.90;89.30;;;;;;5079096;28;19935;-70
2023/08/10 12:18:52;;;;;;;;;;;20.90;89.10;;;;;;5090980;28;20554;-71
2023/08/10 12:21:18;;;;;;;;;;;20.90;89.40;;;;;;5108662;28;19938;-70
2023/08/10 12:23:44;;;;;;;;;;;21.00;89.70;;;;;;5107128;28;19991;-71
2023/08/10 12:26:11;;;;;;;;;;;21.00;90.10;;;;;;5088627;28;19920;-70
2023/08/10 12:28:37;;;;;;;;;;;21.00;90.50;;;;;;5088294;28;19923;-71
2023/08/10 12:31:06;;;;;;;;;;;21.10;90.50;;;;;;5088127;28;20551;-71
2023/08/10 12:33:32;;;;;;;;;;;21.10;90.30;;;;;;5088282;28;20701;-70
2023/08/10 12:35:57;;;;;;;;;;;21.10;90.70;;;;;;5087434;28;19951;-70
2023/08/10 12:38:23;;;;;;;;;;;21.10;90.20;;;;;;5088732;28;19924;-70
2023/08/10 12:40:49;;;;;;;;;;;21.10;90.00;;;;;;5088777;28;19916;-70
2023/08/10 12:43:14;;;;;;;;;;;21.10;89.90;;;;;;5105647;28;19915;-70
2023/08/10 12:45:40;;;;;;;;;;;21.10;90.10;;;;;;5108472;28;19919;-70
2023/08/10 12:48:06;;;;;;;;;;;21.10;90.10;;;;;;5108529;28;19923;-71
2023/08/10 12:50:31;;;;;;;;;;;21.20;90.10;;;;;;5108946;28;19977;-70
2023/08/10 12:52:57;;;;;;;;;;;21.20;90.20;;;;;;5108628;28;19919;-70
2023/08/10 12:55:23;;;;;;;;;;;21.20;89.30;;;;;;5091915;28;19916;-70
2023/08/10 12:57:48;;;;;;;;;;;21.30;90.00;;;;;;5088171;28;19923;-71
2023/08/10 13:00:15;;;;;;;;;;;21.30;88.50;;;;;;5087916;28;19915;-70
2023/08/10 13:02:41;;;;;;;;;;;21.30;88.50;;;;;;5092060;28;19911;-71
2023/08/10 13:05:07;;;;;;;;;;;21.20;88.00;;;;;;5088093;28;20597;-70
2023/08/10 13:07:33;;;;;;;;;;;21.30;87.80;;;;;;5084286;28;19920;-71
2023/08/10 13:10:02;;;;;;;;;;;21.30;87.50;;;;;;5091062;28;19920;-72
2023/08/10 13:12:28;;;;;;;;;;;21.30;87.90;;;;;;5108423;28;20433;-71
2023/08/10 13:14:53;;;;;;;;;;;21.30;87.80;;;;;;5108645;28;19915;-71
2023/08/10 13:17:19;;;;;;;;;;;21.40;86.20;;;;;;5107944;28;20353;-71
2023/08/10 13:19:44;;;;;;;;;;;21.40;85.80;;;;;;5108339;28;19950;-71
2023/08/10 13:22:10;;;;;;;;;;;21.50;85.40;;;;;;5108160;28;19979;-72
2023/08/10 13:24:36;;;;;;;;;;;21.50;84.40;;;;;;5099334;28;19973;-72
2023/08/10 13:27:02;;;;;;;;;;;21.50;84.50;;;;;;5088946;28;19927;-71
2023/08/10 13:29:28;;;;;;;;;;;21.50;84.80;;;;;;5087890;28;19916;-71
2023/08/10 13:31:54;;;;;;;;;;;21.50;85.60;;;;;;5087723;28;19919;-71
2023/08/10 13:34:19;;;;;;;;;;;21.50;86.90;;;;;;5088204;28;19912;-69
2023/08/10 13:36:45;;;;;;;;;;;21.50;87.50;;;;;;5088519;28;19908;-70
2023/08/10 13:39:10;;;;;;;;;;;21.50;86.90;;;;;;5088798;28;19915;-70
2023/08/10 13:41:37;;;;;;;;;;;21.60;87.30;;;;;;5088685;28;19912;-70
2023/08/10 13:44:03;;;;;;;;;;;21.70;86.90;;;;;;5100834;28;20436;-70
2023/08/10 13:46:28;;;;;;;;;;;21.90;86.10;;;;;;5104212;28;19912;-69
2023/08/10 13:48:55;;;;;;;;;;;22.00;85.40;;;;;;5113379;28;19916;-70
2023/08/10 13:51:21;;;;;;;;;;;22.20;85.90;;;;;;5113610;28;19908;-70
2023/08/10 13:53:47;;;;;;;;;;;22.30;85.50;;;;;;5111044;28;19916;-72
2023/08/10 13:56:12;;;;;;;;;;;22.40;85.50;;;;;;5073838;28;20546;-71
2023/08/10 13:58:38;;;;;;;;;;;22.60;84.70;;;;;;5073966;28;19912;-71
2023/08/10 14:01:06;;;;;;;;;;;22.70;85.00;;;;;;5084016;28;19943;-72
2023/08/10 14:03:34;;;;;;;;;;;22.80;84.90;;;;;;5091527;28;19991;-72
2023/08/10 14:06:03;;;;;;;;;;;22.90;85.40;;;;;;5073321;28;19936;-72
2023/08/10 14:08:29;;;;;;;;;;;23.10;84.90;;;;;;5073568;28;19916;-73
2023/08/10 14:10:55;;;;;;;;;;;23.20;84.40;;;;;;5091722;28;19919;-72